createdAt,value
2023-03-08T00:02:18.240Z,-2.29
2023-03-08T00:04:47.668Z,-2.26
2023-03-08T00:07:18.369Z,-2.27
2023-03-08T00:09:47.961Z,-2.26
2023-03-08T00:12:19.308Z,-2.29
2023-03-08T00:14:48.793Z,-2.31
2023-03-08T00:17:21.522Z,-2.32
2023-03-08T00:19:51.348Z,-2.33
2023-03-08T00:22:20.862Z,-2.29
2023-03-08T00:24:50.432Z,-2.35
2023-03-08T00:27:19.832Z,-2.35
2023-03-08T00:29:49.304Z,-2.32
2023-03-08T00:32:21.453Z,-2.27
2023-03-08T00:34:50.871Z,-2.27
2023-03-08T00:37:20.267Z,-2.23
2023-03-08T00:39:53.549Z,-2.25
2023-03-08T00:42:26.355Z,-2.25
2023-03-08T00:44:55.801Z,-2.27
2023-03-08T00:47:27.895Z,-2.27
2023-03-08T00:49:57.349Z,-2.19
2023-03-08T00:52:26.773Z,-2.20
2023-03-08T00:54:56.196Z,-2.24
2023-03-08T00:57:25.586Z,-2.25
2023-03-08T00:59:55.121Z,-2.23
2023-03-08T01:02:27.201Z,-2.26
2023-03-08T01:04:56.613Z,-2.24
2023-03-08T01:07:28.476Z,-2.39
2023-03-08T01:09:58.446Z,-2.49
2023-03-08T01:12:28.913Z,-2.50
2023-03-08T01:14:58.571Z,-2.50
2023-03-08T01:17:30.594Z,-2.46
2023-03-08T01:20:00.557Z,-2.49
2023-03-08T01:22:29.973Z,-2.51
2023-03-08T01:24:59.610Z,-2.51
2023-03-08T01:27:29.051Z,-2.61
2023-03-08T01:29:58.441Z,-2.66
2023-03-08T01:32:30.893Z,-2.69
2023-03-08T01:35:04.672Z,-2.79
2023-03-08T01:37:34.315Z,-2.76
2023-03-08T01:40:05.071Z,-2.83
2023-03-08T01:42:34.934Z,-2.78
2023-03-08T01:45:06.728Z,-2.80
2023-03-08T01:47:38.910Z,-2.82
2023-03-08T01:50:11.596Z,-2.86
2023-03-08T01:52:42.968Z,-2.88
2023-03-08T01:55:15.875Z,-2.94
2023-03-08T01:57:47.423Z,-2.93
2023-03-08T02:00:19.231Z,-2.99
2023-03-08T02:02:53.656Z,-2.96
2023-03-08T02:05:23.715Z,-2.99
2023-03-08T02:07:53.185Z,-2.94
2023-03-08T02:10:23.180Z,-2.96
2023-03-08T02:12:52.897Z,-2.98
2023-03-08T02:15:23.400Z,-2.99
2023-03-08T02:17:55.534Z,-2.99
2023-03-08T02:20:27.862Z,-2.97
2023-03-08T02:23:10.082Z,-3.01
2023-03-08T02:25:39.852Z,-3.10
2023-03-08T02:28:10.066Z,-3.08
2023-03-08T02:30:40.725Z,-3.08
2023-03-08T02:33:10.467Z,-3.07
2023-03-08T02:35:42.850Z,-3.06
2023-03-08T02:38:16.214Z,-3.06
2023-03-08T02:40:45.685Z,-3.08
2023-03-08T02:43:15.205Z,-3.05
2023-03-08T02:45:44.619Z,-3.04
2023-03-08T02:48:14.635Z,-2.98
2023-03-08T02:50:44.021Z,-2.96
2023-03-08T02:53:16.046Z,-2.86
2023-03-08T02:55:45.482Z,-2.79
2023-03-08T02:58:14.896Z,-2.77
2023-03-08T03:00:44.286Z,-2.74
2023-03-08T03:03:13.666Z,-2.61
2023-03-08T03:05:46.890Z,-2.59
2023-03-08T03:08:19.134Z,-2.52
2023-03-08T03:10:48.547Z,-2.48
2023-03-08T03:13:17.924Z,-2.46
2023-03-08T03:15:47.435Z,-2.42
2023-03-08T03:18:17.074Z,-2.40
2023-03-08T03:20:46.499Z,-2.35
2023-03-08T03:23:18.601Z,-2.35
2023-03-08T03:25:48.003Z,-2.33
2023-03-08T03:28:17.372Z,-2.32
2023-03-08T03:30:46.805Z,-2.27
2023-03-08T03:33:16.391Z,-2.27
2023-03-08T03:35:45.794Z,-2.23
2023-03-08T03:38:17.916Z,-2.24
2023-03-08T03:40:47.303Z,-2.22
2023-03-08T03:43:17.306Z,-2.18
2023-03-08T03:45:46.738Z,-2.19
2023-03-08T03:48:17.238Z,-2.19
2023-03-08T03:50:46.671Z,-2.14
2023-03-08T03:53:18.924Z,-2.11
2023-03-08T03:55:48.352Z,-2.10
2023-03-08T03:58:17.823Z,-2.09
2023-03-08T04:00:47.403Z,-2.11
2023-03-08T04:03:16.924Z,-2.08
2023-03-08T04:05:46.410Z,-2.09
2023-03-08T04:08:18.457Z,-2.10
2023-03-08T04:10:47.886Z,-2.04
2023-03-08T04:13:17.364Z,-2.05
2023-03-08T04:15:47.471Z,-2.04
2023-03-08T04:18:17.494Z,-2.03
2023-03-08T04:20:47.191Z,-2.04
2023-03-08T04:23:19.464Z,-2.07
2023-03-08T04:25:50.147Z,-2.05
2023-03-08T04:28:19.582Z,-2.07
2023-03-08T04:30:49.058Z,-2.04
2023-03-08T04:33:18.526Z,-2.00
2023-03-08T04:35:47.986Z,-1.97
2023-03-08T04:38:20.059Z,-1.98
2023-03-08T04:41:07.956Z,-1.99
2023-03-08T04:43:37.513Z,-1.98
2023-03-08T04:46:07.366Z,-1.98
2023-03-08T04:48:37.159Z,-1.96
2023-03-08T04:51:08.824Z,-1.97
2023-03-08T04:53:41.739Z,-1.96
2023-03-08T04:56:11.856Z,-1.98
2023-03-08T04:58:42.152Z,-1.95
2023-03-08T05:01:12.993Z,-1.96
2023-03-08T05:03:42.529Z,-1.98
2023-03-08T05:06:12.476Z,-1.97
2023-03-08T05:08:44.710Z,-1.96
2023-03-08T05:11:18.371Z,-1.96
2023-03-08T05:13:47.895Z,-1.99
2023-03-08T05:16:17.689Z,-1.99
2023-03-08T05:18:47.055Z,-1.99
2023-03-08T05:21:18.331Z,-1.98
2023-03-08T05:23:50.502Z,-1.99
2023-03-08T05:26:21.642Z,-2.01
2023-03-08T05:28:51.069Z,-1.97
2023-03-08T05:31:22.928Z,-1.97
2023-03-08T05:33:54.054Z,-2.01
2023-03-08T05:36:23.524Z,-2.04
2023-03-08T05:38:58.368Z,-1.97
2023-03-08T05:41:27.800Z,-1.96
2023-03-08T05:43:58.575Z,-1.93
2023-03-08T05:46:30.152Z,-1.81
2023-03-08T05:49:00.892Z,-1.65
2023-03-08T05:51:30.275Z,-1.80
2023-03-08T05:54:02.267Z,-1.57
2023-03-08T05:56:31.694Z,-1.61
2023-03-08T05:59:01.079Z,-1.74
2023-03-08T06:01:31.243Z,-1.83
2023-03-08T06:04:00.797Z,-1.75
2023-03-08T06:06:30.877Z,-1.78
2023-03-08T06:09:02.884Z,-1.77
2023-03-08T06:11:32.511Z,-1.75
2023-03-08T06:14:01.925Z,-1.74
2023-03-08T06:16:31.355Z,-1.75
2023-03-08T06:19:00.763Z,-1.73
2023-03-08T06:21:30.772Z,-1.72
2023-03-08T06:24:02.775Z,-1.72
2023-03-08T06:26:32.240Z,-1.77
2023-03-08T06:29:01.687Z,-1.71
2023-03-08T06:31:31.211Z,-1.68
2023-03-08T06:34:00.676Z,-1.73
2023-03-08T06:36:30.380Z,-1.77
2023-03-08T06:39:02.380Z,-1.75
2023-03-08T06:41:32.244Z,-1.77
2023-03-08T06:44:01.977Z,-1.77
2023-03-08T06:46:31.437Z,-1.84
2023-03-08T06:49:04.282Z,-1.80
2023-03-08T06:51:33.673Z,-1.71
2023-03-08T06:54:05.712Z,-1.78
2023-03-08T06:56:35.182Z,-1.81
2023-03-08T06:59:05.188Z,-1.80
2023-03-08T07:01:34.628Z,-1.71
2023-03-08T07:04:04.080Z,-1.76
2023-03-08T07:06:33.558Z,-1.73
2023-03-08T07:09:05.628Z,-1.72
2023-03-08T07:11:35.243Z,-1.69
2023-03-08T07:14:04.675Z,-1.67
2023-03-08T07:16:34.089Z,-1.71
2023-03-08T07:19:04.580Z,-1.75
2023-03-08T07:21:34.006Z,-1.65
2023-03-08T07:24:07.394Z,-1.63
2023-03-08T07:26:36.777Z,-1.68
2023-03-08T07:29:06.218Z,-1.62
2023-03-08T07:31:36.303Z,-1.65
2023-03-08T07:34:05.892Z,-1.59
2023-03-08T07:36:35.547Z,-1.63
2023-03-08T07:39:07.558Z,-1.56
2023-03-08T07:41:36.954Z,-1.60
2023-03-08T07:44:06.530Z,-1.53
2023-03-08T07:46:36.023Z,-1.54
2023-03-08T07:49:10.504Z,-1.57
2023-03-08T07:51:40.180Z,-1.50
2023-03-08T07:54:13.536Z,-1.43
2023-03-08T07:56:43.065Z,-1.45
2023-03-08T07:59:12.513Z,-1.42
2023-03-08T08:01:41.919Z,-1.37
2023-03-08T08:04:12.577Z,-1.33
2023-03-08T08:06:42.355Z,-1.34
2023-03-08T08:09:15.663Z,-1.30
2023-03-08T08:11:45.098Z,-1.26
2023-03-08T08:14:14.511Z,-1.28
2023-03-08T08:16:43.996Z,-1.25
2023-03-08T08:19:14.714Z,-1.22
2023-03-08T08:21:44.176Z,-1.16
2023-03-08T08:24:16.352Z,-1.16
2023-03-08T08:26:45.962Z,-1.13
2023-03-08T08:29:15.809Z,-1.05
2023-03-08T08:31:45.634Z,-1.00
2023-03-08T08:34:15.062Z,-0.96
2023-03-08T08:36:44.468Z,-1.06
2023-03-08T08:39:16.579Z,-1.10
2023-03-08T08:41:46.001Z,-1.13
2023-03-08T08:44:15.681Z,-1.09
2023-03-08T08:46:45.157Z,-1.09
2023-03-08T08:49:14.644Z,-1.04
2023-03-08T08:51:44.039Z,-1.04
2023-03-08T08:54:16.079Z,-1.01
2023-03-08T08:56:45.716Z,-0.97
2023-03-08T08:59:16.396Z,-0.97
2023-03-08T09:01:47.105Z,-0.99
2023-03-08T09:04:17.395Z,-1.02
2023-03-08T09:06:47.257Z,-0.93
2023-03-08T09:09:20.342Z,-0.80
2023-03-08T09:11:55.188Z,-0.74
2023-03-08T09:14:25.734Z,-0.72
2023-03-08T09:16:55.287Z,-0.74
2023-03-08T09:19:24.826Z,-0.56
2023-03-08T09:21:54.271Z,-0.65
2023-03-08T09:24:26.279Z,-0.69
2023-03-08T09:26:55.755Z,-0.67
2023-03-08T09:29:25.683Z,-0.59
2023-03-08T09:31:56.258Z,-0.52
2023-03-08T09:34:27.061Z,-0.52
2023-03-08T09:36:56.528Z,-0.59
2023-03-08T09:39:29.112Z,-0.60
2023-03-08T09:42:00.712Z,-0.59
2023-03-08T09:44:48.946Z,-0.59
2023-03-08T09:47:25.951Z,-0.52
2023-03-08T09:49:56.977Z,-0.55
2023-03-08T09:52:32.422Z,-0.53
2023-03-08T09:55:06.097Z,-0.47
2023-03-08T09:57:40.701Z,-0.48
2023-03-08T10:00:22.069Z,-0.44
2023-03-08T10:03:04.253Z,-0.58
2023-03-08T10:05:37.113Z,-0.62
2023-03-08T10:08:09.315Z,-0.56
2023-03-08T10:10:45.731Z,-0.45
2023-03-08T10:13:30.814Z,-0.48
2023-03-08T10:16:08.611Z,-0.45
2023-03-08T10:18:41.857Z,-0.47
2023-03-08T10:21:14.231Z,-0.61
2023-03-08T10:23:44.110Z,-0.60
2023-03-08T10:26:18.574Z,-0.49
2023-03-08T10:28:47.966Z,-0.49
2023-03-08T10:31:24.073Z,-0.32
2023-03-08T10:33:59.032Z,-0.33
2023-03-08T10:36:28.576Z,-0.36
2023-03-08T10:39:09.916Z,-0.33
2023-03-08T10:41:44.406Z,-0.28
2023-03-08T10:44:17.338Z,-0.21
2023-03-08T10:46:53.049Z,-0.11
2023-03-08T10:49:22.852Z,-0.05
2023-03-08T10:51:56.746Z,0.08
2023-03-08T10:54:26.230Z,0.10
2023-03-08T10:57:00.663Z,0.27
2023-03-08T10:59:32.846Z,0.29
2023-03-08T11:02:04.520Z,0.39
2023-03-08T11:04:34.433Z,0.33
2023-03-08T11:07:13.253Z,0.35
2023-03-08T11:09:42.735Z,0.37
2023-03-08T11:12:26.190Z,0.42
2023-03-08T11:14:58.062Z,0.54
2023-03-08T11:17:31.028Z,0.59
2023-03-08T11:20:11.342Z,0.50
2023-03-08T11:23:02.216Z,0.56
2023-03-08T11:25:39.664Z,0.42
2023-03-08T11:28:34.252Z,0.60
2023-03-08T11:31:19.253Z,0.59
2023-03-08T11:34:00.358Z,0.77
2023-03-08T11:36:34.414Z,0.78
2023-03-08T11:39:14.956Z,0.91
2023-03-08T11:41:49.958Z,0.80
2023-03-08T11:44:31.343Z,0.83
2023-03-08T11:47:29.945Z,0.89
2023-03-08T11:50:07.047Z,1.18
2023-03-08T11:52:42.776Z,1.28
2023-03-08T11:55:31.540Z,1.83
2023-03-08T11:58:06.033Z,1.52
2023-03-08T12:00:40.932Z,1.39
2023-03-08T12:03:16.476Z,1.92
2023-03-08T12:05:51.125Z,1.91
2023-03-08T12:08:24.080Z,1.55
2023-03-08T12:10:58.058Z,1.65
2023-03-08T12:13:31.582Z,1.59
2023-03-08T12:16:10.213Z,1.56
2023-03-08T12:18:46.154Z,1.38
2023-03-08T12:21:27.005Z,1.51
2023-03-08T12:24:05.617Z,1.41
2023-03-08T12:26:38.242Z,1.48
2023-03-08T12:29:13.347Z,1.29
2023-03-08T12:31:48.509Z,1.38
2023-03-08T12:34:29.192Z,1.38
2023-03-08T12:36:58.656Z,1.39
2023-03-08T12:39:31.612Z,1.36
2023-03-08T12:42:03.352Z,1.38
2023-03-08T12:44:33.811Z,1.55
2023-03-08T12:47:22.168Z,1.58
2023-03-08T12:49:53.741Z,1.69
2023-03-08T12:52:30.421Z,1.79
2023-03-08T12:55:01.985Z,1.78
2023-03-08T12:57:33.621Z,1.80
2023-03-08T13:00:09.616Z,1.91
2023-03-08T13:02:41.648Z,1.93
2023-03-08T13:05:23.304Z,1.92
2023-03-08T13:08:03.453Z,1.85
2023-03-08T13:10:35.290Z,1.92
2023-03-08T13:13:36.790Z,1.98
2023-03-08T13:16:22.636Z,1.98
2023-03-08T13:19:04.768Z,2.11
2023-03-08T13:21:38.486Z,2.25
2023-03-08T13:24:14.264Z,2.23
2023-03-08T13:26:52.070Z,2.26
2023-03-08T13:29:23.220Z,2.37
2023-03-08T13:31:53.216Z,2.38
2023-03-08T13:34:36.098Z,2.46
2023-03-08T13:37:05.600Z,2.53
2023-03-08T13:39:35.286Z,4.41
2023-03-08T13:42:10.303Z,4.28
2023-03-08T13:44:39.901Z,4.50
2023-03-08T13:47:21.243Z,4.17
2023-03-08T13:49:53.943Z,4.07
2023-03-08T13:52:26.080Z,4.24
2023-03-08T13:54:57.727Z,4.01
2023-03-08T13:57:29.124Z,3.66
2023-03-08T14:00:00.903Z,3.33
2023-03-08T14:02:32.328Z,3.20
2023-03-08T14:05:06.952Z,4.31
2023-03-08T14:07:36.362Z,5.39
2023-03-08T14:10:06.999Z,5.49
2023-03-08T14:12:37.535Z,4.86
2023-03-08T14:15:08.912Z,3.98
2023-03-08T14:17:38.968Z,3.56
2023-03-08T14:20:23.081Z,3.35
2023-03-08T14:22:54.261Z,3.23
2023-03-08T14:25:27.437Z,3.09
2023-03-08T14:27:56.904Z,3.47
2023-03-08T14:30:27.848Z,3.90
2023-03-08T14:33:01.154Z,3.51
2023-03-08T14:35:34.819Z,3.20
2023-03-08T14:38:04.647Z,3.01
2023-03-08T14:40:35.963Z,2.95
2023-03-08T14:43:07.347Z,2.89
2023-03-08T14:45:38.924Z,2.91
2023-03-08T14:48:25.458Z,2.83
2023-03-08T14:50:59.676Z,2.72
2023-03-08T14:53:32.510Z,2.70
2023-03-08T14:56:09.101Z,2.73
2023-03-08T14:58:41.884Z,2.64
2023-03-08T15:01:11.357Z,2.63
2023-03-08T15:03:41.254Z,3.76
2023-03-08T15:06:18.593Z,4.68
2023-03-08T15:08:48.043Z,4.77
2023-03-08T15:11:18.293Z,3.64
2023-03-08T15:13:48.086Z,3.46
2023-03-08T15:16:17.650Z,3.20
2023-03-08T15:18:47.116Z,2.94
2023-03-08T15:21:23.363Z,2.71
2023-03-08T15:23:52.893Z,2.64
2023-03-08T15:26:26.619Z,2.58
2023-03-08T15:28:56.099Z,2.52
2023-03-08T15:31:25.598Z,2.51
2023-03-08T15:33:55.013Z,2.55
2023-03-08T15:36:32.487Z,2.54
2023-03-08T15:39:04.613Z,2.61
2023-03-08T15:41:34.056Z,2.59
2023-03-08T15:44:03.743Z,2.55
2023-03-08T15:46:33.195Z,2.53
2023-03-08T15:49:02.587Z,2.52
2023-03-08T15:51:36.095Z,2.41
2023-03-08T15:54:06.314Z,2.39
2023-03-08T15:56:35.957Z,2.37
2023-03-08T15:59:05.595Z,2.40
2023-03-08T16:01:35.560Z,2.29
2023-03-08T16:05:15.926Z,2.12
2023-03-08T16:07:44.282Z,2.12
2023-03-08T16:10:14.519Z,2.10
2023-03-08T16:12:42.988Z,2.05
2023-03-08T16:15:11.848Z,2.06
2023-03-08T16:17:40.004Z,2.07
2023-03-08T16:20:09.419Z,2.02
2023-03-08T16:22:41.539Z,2.04
2023-03-08T16:25:12.515Z,2.06
2023-03-08T16:27:42.011Z,2.00
2023-03-08T16:30:14.103Z,1.99
2023-03-08T16:32:43.834Z,1.95
2023-03-08T16:35:13.383Z,1.88
2023-03-08T16:37:45.390Z,1.84
2023-03-08T16:40:15.631Z,1.80
2023-03-08T16:42:45.066Z,1.80
2023-03-08T16:45:17.596Z,1.82
2023-03-08T16:47:47.040Z,1.81
2023-03-08T16:50:16.579Z,1.71
2023-03-08T16:52:48.551Z,1.93
2023-03-08T16:55:18.082Z,3.24
2023-03-08T16:57:47.455Z,3.41
2023-03-08T17:00:18.552Z,3.09
2023-03-08T17:02:48.109Z,2.67
2023-03-08T17:05:17.568Z,2.46
2023-03-08T17:07:49.599Z,2.24
2023-03-08T17:10:19.731Z,2.16
2023-03-08T17:12:49.117Z,1.98
2023-03-08T17:15:18.579Z,1.76
2023-03-08T17:17:47.971Z,1.60
2023-03-08T17:20:17.406Z,1.47
2023-03-08T17:22:49.453Z,1.31
2023-03-08T17:25:18.963Z,1.28
2023-03-08T17:30:47.928Z,1.16
2023-03-08T17:33:16.996Z,1.08
2023-03-08T17:35:45.158Z,1.09
2023-03-08T17:38:13.307Z,1.08
2023-03-08T17:40:41.437Z,1.09
2023-03-08T17:43:09.507Z,1.07
2023-03-08T17:45:37.600Z,1.01
2023-03-08T17:48:11.301Z,1.00
2023-03-08T17:50:40.900Z,0.97
2023-03-08T17:53:12.711Z,1.01
2023-03-08T17:55:43.909Z,1.16
2023-03-08T17:58:13.543Z,1.17
2023-03-08T18:00:43.465Z,1.19
2023-03-08T18:03:15.506Z,1.14
2023-03-08T18:05:50.240Z,1.07
2023-03-08T18:08:20.206Z,0.86
2023-03-08T18:10:49.860Z,0.82
2023-03-08T18:13:19.602Z,0.73
2023-03-08T18:15:49.127Z,0.63
2023-03-08T18:18:21.526Z,0.59
2023-03-08T18:20:51.156Z,0.51
2023-03-08T18:23:22.136Z,0.53
2023-03-08T18:25:51.557Z,0.51
2023-03-08T18:28:21.025Z,0.49
2023-03-08T18:30:50.573Z,0.51
2023-03-08T18:33:22.812Z,0.44
2023-03-08T18:35:59.055Z,0.42
2023-03-08T18:38:28.482Z,0.41
2023-03-08T18:40:57.980Z,0.39
2023-03-08T18:43:27.963Z,0.34
2023-03-08T18:45:58.958Z,0.33
2023-03-08T18:48:30.987Z,0.30
2023-03-08T18:51:03.620Z,0.28
2023-03-08T18:53:33.111Z,0.25
2023-03-08T18:56:04.102Z,0.20
2023-03-08T18:58:34.129Z,0.18
2023-03-08T19:01:03.764Z,0.18
2023-03-08T19:03:35.830Z,0.12
2023-03-08T19:06:05.555Z,0.17
2023-03-08T19:08:35.900Z,0.11
2023-03-08T19:11:14.896Z,0.07
2023-03-08T19:13:45.013Z,0.09
2023-03-08T19:16:20.822Z,0.07
2023-03-08T19:18:55.553Z,0.03
2023-03-08T19:21:27.196Z,-0.01
2023-03-08T19:23:56.711Z,0.01
2023-03-08T19:26:41.050Z,-0.07
2023-03-08T19:29:13.636Z,-0.10
2023-03-08T19:31:44.605Z,-0.17
2023-03-08T19:34:16.863Z,-0.14
2023-03-08T19:36:47.988Z,-0.13
2023-03-08T19:39:19.923Z,-0.16
2023-03-08T19:41:50.867Z,-0.25
2023-03-08T19:44:20.948Z,-0.18
2023-03-08T19:46:50.685Z,-0.24
2023-03-08T19:49:24.562Z,-0.29
2023-03-08T19:51:55.993Z,-0.28
2023-03-08T19:54:26.585Z,-0.36
2023-03-08T19:56:56.564Z,-0.39
2023-03-08T19:59:26.386Z,-0.34
2023-03-08T20:01:57.077Z,-0.37
2023-03-08T20:04:29.334Z,-0.36
2023-03-08T20:07:02.177Z,-0.36
2023-03-08T20:09:31.881Z,-0.36
2023-03-08T20:12:01.344Z,-0.37
2023-03-08T20:14:31.103Z,-0.41
2023-03-08T20:17:01.872Z,-0.44
2023-03-08T20:19:35.730Z,-0.42
2023-03-08T20:22:06.044Z,-0.44
2023-03-08T20:24:35.501Z,-0.44
2023-03-08T20:27:05.236Z,-0.49
2023-03-08T20:29:34.737Z,-0.50
2023-03-08T20:32:04.581Z,-0.53
2023-03-08T20:34:36.586Z,-0.51
2023-03-08T20:37:06.010Z,-0.48
2023-03-08T20:39:35.423Z,-0.50
2023-03-08T20:42:04.816Z,-0.54
2023-03-08T20:44:34.202Z,-0.57
2023-03-08T20:47:04.236Z,-0.52
2023-03-08T20:49:36.316Z,-0.56
2023-03-08T20:52:06.258Z,-0.58
2023-03-08T20:54:35.742Z,-0.63
2023-03-08T20:57:05.655Z,-0.60
2023-03-08T20:59:35.090Z,-0.64
2023-03-08T21:02:04.604Z,-0.68
2023-03-08T21:04:36.559Z,-0.72
2023-03-08T21:07:06.020Z,-0.65
2023-03-08T21:09:35.530Z,-0.68
2023-03-08T21:12:05.207Z,-0.63
2023-03-08T21:14:34.609Z,-0.69
2023-03-08T21:17:04.065Z,-0.69
2023-03-08T21:19:36.050Z,-0.68
2023-03-08T21:22:07.218Z,-0.68
2023-03-08T21:24:36.654Z,-0.70
2023-03-08T21:27:06.096Z,-0.71
2023-03-08T21:29:35.530Z,-0.77
2023-03-08T21:32:05.091Z,-0.77
2023-03-08T21:34:37.108Z,-0.77
2023-03-08T21:37:06.517Z,-0.74
2023-03-08T21:39:35.901Z,-0.83
2023-03-08T21:42:05.363Z,-0.85
2023-03-08T21:44:34.781Z,-0.87
2023-03-08T21:47:04.216Z,-0.86
2023-03-08T21:49:35.110Z,-0.89
2023-03-08T21:52:07.594Z,-0.93
2023-03-08T21:54:37.048Z,-0.95
2023-03-08T21:57:06.491Z,-1.00
2023-03-08T21:59:36.126Z,-1.01
2023-03-08T22:02:05.835Z,-0.98
2023-03-08T22:04:35.323Z,-1.02
2023-03-08T22:07:07.659Z,-0.98
2023-03-08T22:09:37.049Z,-0.99
2023-03-08T22:12:07.193Z,-0.99
2023-03-08T22:14:36.636Z,-1.01
2023-03-08T22:17:07.284Z,-0.99
2023-03-08T22:19:36.736Z,-0.99
2023-03-08T22:22:10.414Z,-1.00
2023-03-08T22:24:40.089Z,-1.04
2023-03-08T22:27:10.769Z,-0.98
2023-03-08T22:29:40.175Z,-0.99
2023-03-08T22:32:10.673Z,-1.03
2023-03-08T22:34:40.302Z,-1.05
2023-03-08T22:37:12.349Z,-1.03
2023-03-08T22:39:41.941Z,-1.05
2023-03-08T22:42:11.482Z,-1.04
2023-03-08T22:44:40.941Z,-1.04
2023-03-08T22:47:10.327Z,-1.04
2023-03-08T22:49:39.729Z,-1.10
2023-03-08T22:52:12.013Z,-1.06
2023-03-08T22:54:41.483Z,-1.11
2023-03-08T22:57:10.856Z,-1.06
2023-03-08T22:59:40.541Z,-1.11
2023-03-08T23:02:10.296Z,-1.03
2023-03-08T23:04:40.021Z,-0.99
2023-03-08T23:07:12.088Z,-0.66
2023-03-08T23:09:41.503Z,-0.60
2023-03-08T23:12:11.676Z,-0.49
2023-03-08T23:14:41.109Z,-0.55
2023-03-08T23:17:10.563Z,-0.49
2023-03-08T23:19:45.000Z,-0.64
2023-03-08T23:22:17.182Z,-0.83
2023-03-08T23:24:47.042Z,-0.96
2023-03-08T23:27:16.483Z,-0.96
2023-03-08T23:29:45.968Z,-0.98
2023-03-08T23:32:15.472Z,-1.00
2023-03-08T23:34:44.885Z,-1.05
2023-03-08T23:37:16.934Z,-1.10
2023-03-08T23:39:46.473Z,-1.11
2023-03-08T23:42:15.951Z,-1.12
2023-03-08T23:44:45.374Z,-1.17
2023-03-08T23:47:14.802Z,-1.17
2023-03-08T23:49:44.573Z,-1.21
2023-03-08T23:52:14.031Z,-1.19
2023-03-08T23:54:46.086Z,-1.23
2023-03-08T23:57:15.559Z,-1.25
2023-03-08T23:59:44.985Z,-1.25
